sensor_id;sensor_type;location;lat;lon;timestamp;temperature;humidity
13854;DHT22;6997;51.782;8.824;2022-10-16T00:01:41;13.40;99.90
13854;DHT22;6997;51.782;8.824;2022-10-16T00:04:06;13.40;99.90
13854;DHT22;6997;51.782;8.824;2022-10-16T00:06:32;14.00;99.90
13854;DHT22;6997;51.782;8.824;2022-10-16T00:08:58;13.40;99.90
13854;DHT22;6997;51.782;8.824;2022-10-16T00:11:26;13.40;99.90
13854;DHT22;6997;51.782;8.824;2022-10-16T00:13:57;13.40;99.90
13854;DHT22;6997;51.782;8.824;2022-10-16T00:16:23;13.40;99.90
13854;DHT22;6997;51.782;8.824;2022-10-16T00:18:48;14.20;99.90
13854;DHT22;6997;51.782;8.824;2022-10-16T00:21:18;13.40;99.90
13854;DHT22;6997;51.782;8.824;2022-10-16T00:23:44;13.40;99.90
13854;DHT22;6997;51.782;8.824;2022-10-16T00:26:12;13.50;99.90
13854;DHT22;6997;51.782;8.824;2022-10-16T00:28:38;13.80;99.90
13854;DHT22;6997;51.782;8.824;2022-10-16T00:31:10;13.30;99.90
13854;DHT22;6997;51.782;8.824;2022-10-16T00:33:37;13.30;99.90
13854;DHT22;6997;51.782;8.824;2022-10-16T00:36:04;13.30;99.90
13854;DHT22;6997;51.782;8.824;2022-10-16T00:38:30;13.30;99.90
13854;DHT22;6997;51.782;8.824;2022-10-16T00:40:56;13.30;99.90
13854;DHT22;6997;51.782;8.824;2022-10-16T00:46:16;13.20;99.90
13854;DHT22;6997;51.782;8.824;2022-10-16T00:48:48;13.20;99.90
13854;DHT22;6997;51.782;8.824;2022-10-16T00:51:14;13.20;99.90
13854;DHT22;6997;51.782;8.824;2022-10-16T00:53:40;13.10;99.90
13854;DHT22;6997;51.782;8.824;2022-10-16T00:56:06;13.20;99.90
13854;DHT22;6997;51.782;8.824;2022-10-16T00:58:32;13.10;99.90
13854;DHT22;6997;51.782;8.824;2022-10-16T01:00:57;13.10;99.90
13854;DHT22;6997;51.782;8.824;2022-10-16T01:03:32;13.00;99.90
13854;DHT22;6997;51.782;8.824;2022-10-16T01:06:19;13.10;99.90
13854;DHT22;6997;51.782;8.824;2022-10-16T01:14:42;13.00;99.90
13854;DHT22;6997;51.782;8.824;2022-10-16T01:17:12;13.10;99.90
13854;DHT22;6997;51.782;8.824;2022-10-16T01:22:16;13.10;99.90
13854;DHT22;6997;51.782;8.824;2022-10-16T01:24:48;14.10;99.90
13854;DHT22;6997;51.782;8.824;2022-10-16T01:27:36;13.10;99.90
13854;DHT22;6997;51.782;8.824;2022-10-16T01:30:23;13.20;99.90
13854;DHT22;6997;51.782;8.824;2022-10-16T01:32:57;13.20;99.90
13854;DHT22;6997;51.782;8.824;2022-10-16T01:35:32;13.20;99.90
13854;DHT22;6997;51.782;8.824;2022-10-16T01:38:25;13.10;99.90
13854;DHT22;6997;51.782;8.824;2022-10-16T01:41:04;13.20;99.90
13854;DHT22;6997;51.782;8.824;2022-10-16T01:43:34;13.10;99.90
13854;DHT22;6997;51.782;8.824;2022-10-16T01:46:02;13.20;99.90
13854;DHT22;6997;51.782;8.824;2022-10-16T01:48:29;13.20;99.90
13854;DHT22;6997;51.782;8.824;2022-10-16T01:51:25;13.30;99.90
13854;DHT22;6997;51.782;8.824;2022-10-16T01:53:55;14.10;99.90
13854;DHT22;6997;51.782;8.824;2022-10-16T01:56:22;13.90;99.90
13854;DHT22;6997;51.782;8.824;2022-10-16T01:58:54;14.10;99.90
13854;DHT22;6997;51.782;8.824;2022-10-16T02:01:23;13.90;99.90
13854;DHT22;6997;51.782;8.824;2022-10-16T02:03:52;13.00;99.90
13854;DHT22;6997;51.782;8.824;2022-10-16T02:06:19;9.50;99.90
13854;DHT22;6997;51.782;8.824;2022-10-16T02:08:45;13.10;99.90
13854;DHT22;6997;51.782;8.824;2022-10-16T02:11:11;13.00;99.90
13854;DHT22;6997;51.782;8.824;2022-10-16T02:13:40;13.00;99.90
13854;DHT22;6997;51.782;8.824;2022-10-16T02:16:11;14.10;99.90
13854;DHT22;6997;51.782;8.824;2022-10-16T02:18:38;13.00;99.90
13854;DHT22;6997;51.782;8.824;2022-10-16T02:21:20;13.40;99.90
13854;DHT22;6997;51.782;8.824;2022-10-16T02:26:56;12.90;99.90
13854;DHT22;6997;51.782;8.824;2022-10-16T02:29:25;12.90;99.90
13854;DHT22;6997;51.782;8.824;2022-10-16T02:32:03;13.50;99.90
13854;DHT22;6997;51.782;8.824;2022-10-16T02:34:31;13.00;99.90
13854;DHT22;6997;51.782;8.824;2022-10-16T02:36:59;13.50;99.90
13854;DHT22;6997;51.782;8.824;2022-10-16T02:39:28;12.90;99.90
13854;DHT22;6997;51.782;8.824;2022-10-16T02:41:54;14.00;99.90
13854;DHT22;6997;51.782;8.824;2022-10-16T02:44:19;13.00;99.90
13854;DHT22;6997;51.782;8.824;2022-10-16T02:46:45;13.00;99.90
13854;DHT22;6997;51.782;8.824;2022-10-16T02:49:11;13.00;99.90
13854;DHT22;6997;51.782;8.824;2022-10-16T02:51:36;13.30;99.90
13854;DHT22;6997;51.782;8.824;2022-10-16T02:54:02;13.00;99.90
13854;DHT22;6997;51.782;8.824;2022-10-16T02:56:28;13.00;99.90
13854;DHT22;6997;51.782;8.824;2022-10-16T02:58:55;13.10;99.90
13854;DHT22;6997;51.782;8.824;2022-10-16T03:01:21;13.10;99.90
13854;DHT22;6997;51.782;8.824;2022-10-16T03:03:46;14.00;99.90
13854;DHT22;6997;51.782;8.824;2022-10-16T03:06:12;13.10;99.90
13854;DHT22;6997;51.782;8.824;2022-10-16T03:08:38;13.20;99.90
13854;DHT22;6997;51.782;8.824;2022-10-16T03:11:03;13.20;99.90
13854;DHT22;6997;51.782;8.824;2022-10-16T03:13:29;13.10;99.90
13854;DHT22;6997;51.782;8.824;2022-10-16T03:15:54;14.30;99.90
13854;DHT22;6997;51.782;8.824;2022-10-16T03:18:20;13.10;99.90
13854;DHT22;6997;51.782;8.824;2022-10-16T03:20:45;13.60;99.90
13854;DHT22;6997;51.782;8.824;2022-10-16T03:23:11;13.00;99.90
13854;DHT22;6997;51.782;8.824;2022-10-16T03:25:37;13.00;99.90
13854;DHT22;6997;51.782;8.824;2022-10-16T03:28:03;13.00;99.90
13854;DHT22;6997;51.782;8.824;2022-10-16T03:30:29;13.10;99.90
13854;DHT22;6997;51.782;8.824;2022-10-16T03:32:55;13.00;99.90
13854;DHT22;6997;51.782;8.824;2022-10-16T03:35:21;13.00;99.90
13854;DHT22;6997;51.782;8.824;2022-10-16T03:37:46;13.80;99.90
13854;DHT22;6997;51.782;8.824;2022-10-16T03:40:13;13.00;99.90
13854;DHT22;6997;51.782;8.824;2022-10-16T03:42:39;13.10;99.90
13854;DHT22;6997;51.782;8.824;2022-10-16T03:45:05;13.10;99.90
13854;DHT22;6997;51.782;8.824;2022-10-16T03:47:31;13.10;99.90
13854;DHT22;6997;51.782;8.824;2022-10-16T03:49:58;13.20;99.90
13854;DHT22;6997;51.782;8.824;2022-10-16T03:52:24;13.70;99.90
13854;DHT22;6997;51.782;8.824;2022-10-16T03:54:50;13.10;99.90
13854;DHT22;6997;51.782;8.824;2022-10-16T03:57:16;13.10;99.90
13854;DHT22;6997;51.782;8.824;2022-10-16T03:59:41;13.30;99.90
13854;DHT22;6997;51.782;8.824;2022-10-16T04:02:07;13.10;99.90
13854;DHT22;6997;51.782;8.824;2022-10-16T04:04:33;13.10;99.90
13854;DHT22;6997;51.782;8.824;2022-10-16T04:06:59;13.10;99.90
13854;DHT22;6997;51.782;8.824;2022-10-16T04:09:25;13.80;99.90
13854;DHT22;6997;51.782;8.824;2022-10-16T04:11:50;13.10;99.90
13854;DHT22;6997;51.782;8.824;2022-10-16T04:14:16;13.10;99.90
13854;DHT22;6997;51.782;8.824;2022-10-16T04:16:41;13.20;99.90
13854;DHT22;6997;51.782;8.824;2022-10-16T04:19:08;13.10;99.90
13854;DHT22;6997;51.782;8.824;2022-10-16T04:21:34;13.10;99.90
13854;DHT22;6997;51.782;8.824;2022-10-16T04:23:59;13.10;99.90
13854;DHT22;6997;51.782;8.824;2022-10-16T04:26:25;13.70;99.90
13854;DHT22;6997;51.782;8.824;2022-10-16T04:28:50;13.10;99.90
13854;DHT22;6997;51.782;8.824;2022-10-16T04:31:16;13.10;99.90
13854;DHT22;6997;51.782;8.824;2022-10-16T04:33:44;13.10;99.90
13854;DHT22;6997;51.782;8.824;2022-10-16T04:36:10;13.10;99.90
13854;DHT22;6997;51.782;8.824;2022-10-16T04:38:36;14.00;99.90
13854;DHT22;6997;51.782;8.824;2022-10-16T04:41:03;13.80;99.90
13854;DHT22;6997;51.782;8.824;2022-10-16T04:43:28;13.00;99.90
13854;DHT22;6997;51.782;8.824;2022-10-16T04:45:54;13.00;99.90
13854;DHT22;6997;51.782;8.824;2022-10-16T04:48:20;13.10;99.90
13854;DHT22;6997;51.782;8.824;2022-10-16T04:50:46;13.90;99.90
13854;DHT22;6997;51.782;8.824;2022-10-16T04:53:11;13.10;99.90
13854;DHT22;6997;51.782;8.824;2022-10-16T04:55:37;13.10;99.90
13854;DHT22;6997;51.782;8.824;2022-10-16T04:58:03;13.10;99.90
13854;DHT22;6997;51.782;8.824;2022-10-16T05:00:29;13.10;99.90
13854;DHT22;6997;51.782;8.824;2022-10-16T05:02:55;13.40;99.90
13854;DHT22;6997;51.782;8.824;2022-10-16T05:05:20;13.40;99.90
13854;DHT22;6997;51.782;8.824;2022-10-16T05:07:47;13.20;99.90
13854;DHT22;6997;51.782;8.824;2022-10-16T05:10:13;13.20;99.90
13854;DHT22;6997;51.782;8.824;2022-10-16T05:12:38;13.20;99.90
13854;DHT22;6997;51.782;8.824;2022-10-16T05:15:04;13.20;99.90
13854;DHT22;6997;51.782;8.824;2022-10-16T05:17:30;13.20;99.90
13854;DHT22;6997;51.782;8.824;2022-10-16T05:19:56;13.30;99.90
13854;DHT22;6997;51.782;8.824;2022-10-16T05:22:22;14.50;99.90
13854;DHT22;6997;51.782;8.824;2022-10-16T05:24:47;13.30;99.90
13854;DHT22;6997;51.782;8.824;2022-10-16T05:27:13;14.00;99.90
13854;DHT22;6997;51.782;8.824;2022-10-16T05:29:48;13.20;99.90
13854;DHT22;6997;51.782;8.824;2022-10-16T05:32:17;13.20;99.90
13854;DHT22;6997;51.782;8.824;2022-10-16T05:34:51;13.20;99.90
13854;DHT22;6997;51.782;8.824;2022-10-16T05:37:17;13.50;99.90
13854;DHT22;6997;51.782;8.824;2022-10-16T05:39:42;13.20;99.90
13854;DHT22;6997;51.782;8.824;2022-10-16T05:42:08;13.20;99.90
13854;DHT22;6997;51.782;8.824;2022-10-16T05:44:33;13.20;99.90
13854;DHT22;6997;51.782;8.824;2022-10-16T05:46:59;13.20;99.90
13854;DHT22;6997;51.782;8.824;2022-10-16T05:49:25;14.10;99.90
13854;DHT22;6997;51.782;8.824;2022-10-16T05:51:50;13.20;99.90
13854;DHT22;6997;51.782;8.824;2022-10-16T05:54:16;13.20;99.90
13854;DHT22;6997;51.782;8.824;2022-10-16T05:56:41;13.20;99.90
13854;DHT22;6997;51.782;8.824;2022-10-16T05:59:07;13.30;99.90
13854;DHT22;6997;51.782;8.824;2022-10-16T06:01:33;13.30;99.90
13854;DHT22;6997;51.782;8.824;2022-10-16T06:03:58;13.30;99.90
13854;DHT22;6997;51.782;8.824;2022-10-16T06:06:27;13.30;99.90
13854;DHT22;6997;51.782;8.824;2022-10-16T06:08:54;13.30;99.90
13854;DHT22;6997;51.782;8.824;2022-10-16T06:11:29;13.30;99.90
13854;DHT22;6997;51.782;8.824;2022-10-16T06:13:57;13.30;99.90
13854;DHT22;6997;51.782;8.824;2022-10-16T06:16:24;13.30;99.90
13854;DHT22;6997;51.782;8.824;2022-10-16T06:18:51;13.40;99.90
13854;DHT22;6997;51.782;8.824;2022-10-16T06:21:20;13.30;99.90
13854;DHT22;6997;51.782;8.824;2022-10-16T06:23:46;13.90;99.90
13854;DHT22;6997;51.782;8.824;2022-10-16T06:26:14;13.30;99.90
13854;DHT22;6997;51.782;8.824;2022-10-16T06:28:40;13.50;99.90
13854;DHT22;6997;51.782;8.824;2022-10-16T06:31:07;13.40;99.90
13854;DHT22;6997;51.782;8.824;2022-10-16T06:33:34;13.40;99.90
13854;DHT22;6997;51.782;8.824;2022-10-16T06:36:05;14.00;99.90
13854;DHT22;6997;51.782;8.824;2022-10-16T06:38:31;13.40;99.90
13854;DHT22;6997;51.782;8.824;2022-10-16T06:40:57;13.40;99.90
13854;DHT22;6997;51.782;8.824;2022-10-16T06:43:23;14.20;99.90
13854;DHT22;6997;51.782;8.824;2022-10-16T06:45:53;13.50;99.90
13854;DHT22;6997;51.782;8.824;2022-10-16T06:48:19;13.60;99.90
13854;DHT22;6997;51.782;8.824;2022-10-16T06:51:04;13.60;99.90
13854;DHT22;6997;51.782;8.824;2022-10-16T06:53:33;13.70;99.90
13854;DHT22;6997;51.782;8.824;2022-10-16T06:56:07;13.70;99.90
13854;DHT22;6997;51.782;8.824;2022-10-16T06:58:33;13.80;99.90
13854;DHT22;6997;51.782;8.824;2022-10-16T07:00:58;13.90;99.90
13854;DHT22;6997;51.782;8.824;2022-10-16T07:03:24;13.90;99.90
13854;DHT22;6997;51.782;8.824;2022-10-16T07:05:49;13.80;99.90
13854;DHT22;6997;51.782;8.824;2022-10-16T07:08:15;14.00;99.90
13854;DHT22;6997;51.782;8.824;2022-10-16T07:10:40;14.70;99.90
13854;DHT22;6997;51.782;8.824;2022-10-16T07:13:06;13.80;99.90
13854;DHT22;6997;51.782;8.824;2022-10-16T07:15:33;14.00;99.90
13854;DHT22;6997;51.782;8.824;2022-10-16T07:17:59;14.00;99.90
13854;DHT22;6997;51.782;8.824;2022-10-16T07:20:25;13.80;99.90
13854;DHT22;6997;51.782;8.824;2022-10-16T07:22:51;13.90;99.90
13854;DHT22;6997;51.782;8.824;2022-10-16T07:25:17;14.10;99.90
13854;DHT22;6997;51.782;8.824;2022-10-16T07:27:43;14.80;99.90
13854;DHT22;6997;51.782;8.824;2022-10-16T07:30:09;14.00;99.90
13854;DHT22;6997;51.782;8.824;2022-10-16T07:32:35;14.00;99.90
13854;DHT22;6997;51.782;8.824;2022-10-16T07:35:02;14.10;99.90
13854;DHT22;6997;51.782;8.824;2022-10-16T07:37:27;14.10;99.90
13854;DHT22;6997;51.782;8.824;2022-10-16T07:39:53;14.10;99.90
13854;DHT22;6997;51.782;8.824;2022-10-16T07:42:18;14.10;99.90
13854;DHT22;6997;51.782;8.824;2022-10-16T07:44:45;14.20;99.90
13854;DHT22;6997;51.782;8.824;2022-10-16T07:47:11;14.30;99.90
13854;DHT22;6997;51.782;8.824;2022-10-16T07:49:37;14.30;99.90
13854;DHT22;6997;51.782;8.824;2022-10-16T07:52:03;14.40;99.90
13854;DHT22;6997;51.782;8.824;2022-10-16T07:54:29;14.50;99.90
13854;DHT22;6997;51.782;8.824;2022-10-16T07:56:54;14.60;99.90
13854;DHT22;6997;51.782;8.824;2022-10-16T07:59:21;14.60;99.90
13854;DHT22;6997;51.782;8.824;2022-10-16T08:01:46;14.70;99.90
13854;DHT22;6997;51.782;8.824;2022-10-16T08:04:14;14.90;99.90
13854;DHT22;6997;51.782;8.824;2022-10-16T08:06:40;15.00;99.90
13854;DHT22;6997;51.782;8.824;2022-10-16T08:09:07;15.00;99.90
13854;DHT22;6997;51.782;8.824;2022-10-16T08:11:35;15.00;99.90
13854;DHT22;6997;51.782;8.824;2022-10-16T08:14:02;15.00;99.90
13854;DHT22;6997;51.782;8.824;2022-10-16T08:16:27;15.60;99.90
13854;DHT22;6997;51.782;8.824;2022-10-16T08:18:53;15.00;99.90
13854;DHT22;6997;51.782;8.824;2022-10-16T08:21:21;15.10;99.90
13854;DHT22;6997;51.782;8.824;2022-10-16T08:23:49;15.00;99.90
13854;DHT22;6997;51.782;8.824;2022-10-16T08:26:15;15.20;99.90
13854;DHT22;6997;51.782;8.824;2022-10-16T08:28:41;15.10;99.90
13854;DHT22;6997;51.782;8.824;2022-10-16T08:31:15;15.10;99.90
13854;DHT22;6997;51.782;8.824;2022-10-16T08:33:42;15.00;99.90
13854;DHT22;6997;51.782;8.824;2022-10-16T08:36:09;15.10;99.90
13854;DHT22;6997;51.782;8.824;2022-10-16T08:38:36;15.20;99.90
13854;DHT22;6997;51.782;8.824;2022-10-16T08:47:21;15.30;99.90
13854;DHT22;6997;51.782;8.824;2022-10-16T08:50:09;15.30;99.90
13854;DHT22;6997;51.782;8.824;2022-10-16T08:52:40;15.30;99.90
13854;DHT22;6997;51.782;8.824;2022-10-16T08:55:38;15.50;99.90
13854;DHT22;6997;51.782;8.824;2022-10-16T08:58:14;15.60;99.90
13854;DHT22;6997;51.782;8.824;2022-10-16T09:00:41;15.60;99.90
13854;DHT22;6997;51.782;8.824;2022-10-16T09:03:21;15.70;99.90
13854;DHT22;6997;51.782;8.824;2022-10-16T09:16:35;16.00;99.90
13854;DHT22;6997;51.782;8.824;2022-10-16T09:19:27;15.90;99.90
13854;DHT22;6997;51.782;8.824;2022-10-16T09:21:57;16.90;99.90
13854;DHT22;6997;51.782;8.824;2022-10-16T09:24:26;15.90;99.90
13854;DHT22;6997;51.782;8.824;2022-10-16T09:26:51;16.10;99.90
13854;DHT22;6997;51.782;8.824;2022-10-16T09:29:19;16.00;99.90
13854;DHT22;6997;51.782;8.824;2022-10-16T09:31:46;16.10;99.90
13854;DHT22;6997;51.782;8.824;2022-10-16T09:34:30;16.00;99.90
13854;DHT22;6997;51.782;8.824;2022-10-16T09:36:59;16.00;99.90
13854;DHT22;6997;51.782;8.824;2022-10-16T09:39:26;15.90;99.90
13854;DHT22;6997;51.782;8.824;2022-10-16T09:41:52;15.90;99.90
13854;DHT22;6997;51.782;8.824;2022-10-16T09:44:27;16.00;99.90
13854;DHT22;6997;51.782;8.824;2022-10-16T09:47:04;16.00;99.90
13854;DHT22;6997;51.782;8.824;2022-10-16T09:49:30;16.10;99.90
13854;DHT22;6997;51.782;8.824;2022-10-16T09:52:15;16.20;99.90
13854;DHT22;6997;51.782;8.824;2022-10-16T09:54:58;16.30;99.90
13854;DHT22;6997;51.782;8.824;2022-10-16T09:57:25;16.30;99.90
13854;DHT22;6997;51.782;8.824;2022-10-16T09:59:53;16.20;99.90
13854;DHT22;6997;51.782;8.824;2022-10-16T10:02:30;16.10;99.90
13854;DHT22;6997;51.782;8.824;2022-10-16T10:04:56;16.10;99.90
13854;DHT22;6997;51.782;8.824;2022-10-16T10:07:27;16.10;99.90
13854;DHT22;6997;51.782;8.824;2022-10-16T10:09:56;16.10;99.90
13854;DHT22;6997;51.782;8.824;2022-10-16T10:12:27;16.90;99.90
13854;DHT22;6997;51.782;8.824;2022-10-16T10:15:02;17.10;99.90
13854;DHT22;6997;51.782;8.824;2022-10-16T10:17:29;16.00;99.90
13854;DHT22;6997;51.782;8.824;2022-10-16T10:20:00;16.00;99.90
13854;DHT22;6997;51.782;8.824;2022-10-16T10:22:31;16.80;99.90
13854;DHT22;6997;51.782;8.824;2022-10-16T10:25:31;16.20;99.90
13854;DHT22;6997;51.782;8.824;2022-10-16T10:31:14;16.40;99.90
13854;DHT22;6997;51.782;8.824;2022-10-16T10:36:40;16.60;99.90
13854;DHT22;6997;51.782;8.824;2022-10-16T10:39:30;16.70;99.90
13854;DHT22;6997;51.782;8.824;2022-10-16T10:44:54;16.90;99.90
13854;DHT22;6997;51.782;8.824;2022-10-16T10:47:35;16.70;99.90
13854;DHT22;6997;51.782;8.824;2022-10-16T10:50:30;16.80;99.90
13854;DHT22;6997;51.782;8.824;2022-10-16T10:58:33;16.90;99.90
13854;DHT22;6997;51.782;8.824;2022-10-16T11:01:15;17.00;99.90
13854;DHT22;6997;51.782;8.824;2022-10-16T11:06:33;17.10;99.90
13854;DHT22;6997;51.782;8.824;2022-10-16T11:09:20;17.10;99.90
13854;DHT22;6997;51.782;8.824;2022-10-16T11:11:52;17.10;99.90
13854;DHT22;6997;51.782;8.824;2022-10-16T11:14:46;17.70;99.90
13854;DHT22;6997;51.782;8.824;2022-10-16T11:19:48;17.10;99.90
13854;DHT22;6997;51.782;8.824;2022-10-16T11:25:45;17.20;99.90
13854;DHT22;6997;51.782;8.824;2022-10-16T11:27:53;17.20;99.90
13854;DHT22;6997;51.782;8.824;2022-10-16T11:30:21;17.30;99.90
13854;DHT22;6997;51.782;8.824;2022-10-16T11:35:34;17.40;99.90
13854;DHT22;6997;51.782;8.824;2022-10-16T11:38:09;18.20;99.90
13854;DHT22;6997;51.782;8.824;2022-10-16T11:40:38;17.40;99.90
13854;DHT22;6997;51.782;8.824;2022-10-16T11:43:27;17.40;99.90
13854;DHT22;6997;51.782;8.824;2022-10-16T11:46:00;17.30;99.90
13854;DHT22;6997;51.782;8.824;2022-10-16T11:48:57;17.30;99.90
13854;DHT22;6997;51.782;8.824;2022-10-16T11:56:39;17.10;99.90
13854;DHT22;6997;51.782;8.824;2022-10-16T11:59:19;17.10;99.90
13854;DHT22;6997;51.782;8.824;2022-10-16T12:01:51;17.20;99.90
13854;DHT22;6997;51.782;8.824;2022-10-16T12:04:22;17.10;99.90
13854;DHT22;6997;51.782;8.824;2022-10-16T12:09:20;17.30;99.90
13854;DHT22;6997;51.782;8.824;2022-10-16T12:11:47;17.20;99.90
13854;DHT22;6997;51.782;8.824;2022-10-16T12:17:00;17.20;99.90
13854;DHT22;6997;51.782;8.824;2022-10-16T12:19:28;17.20;99.90
13854;DHT22;6997;51.782;8.824;2022-10-16T12:21:57;17.30;99.90
13854;DHT22;6997;51.782;8.824;2022-10-16T12:24:35;17.20;99.90
13854;DHT22;6997;51.782;8.824;2022-10-16T12:27:03;17.30;99.90
13854;DHT22;6997;51.782;8.824;2022-10-16T12:29:39;17.40;99.90
13854;DHT22;6997;51.782;8.824;2022-10-16T12:32:22;17.50;99.90
13854;DHT22;6997;51.782;8.824;2022-10-16T12:34:50;17.60;99.90
13854;DHT22;6997;51.782;8.824;2022-10-16T12:37:22;18.50;99.90
13854;DHT22;6997;51.782;8.824;2022-10-16T12:39:49;17.50;99.90
13854;DHT22;6997;51.782;8.824;2022-10-16T12:44:55;18.80;99.90
13854;DHT22;6997;51.782;8.824;2022-10-16T12:49:56;19.60;99.90
13854;DHT22;6997;51.782;8.824;2022-10-16T12:52:35;18.30;99.90
13854;DHT22;6997;51.782;8.824;2022-10-16T12:55:01;18.40;99.90
13854;DHT22;6997;51.782;8.824;2022-10-16T13:20:17;17.70;99.90
13854;DHT22;6997;51.782;8.824;2022-10-16T13:23:18;17.80;99.90
13854;DHT22;6997;51.782;8.824;2022-10-16T13:26:15;17.70;99.90
13854;DHT22;6997;51.782;8.824;2022-10-16T13:29:01;17.90;99.90
13854;DHT22;6997;51.782;8.824;2022-10-16T13:31:28;17.70;99.90
13854;DHT22;6997;51.782;8.824;2022-10-16T13:33:59;17.60;99.90
13854;DHT22;6997;51.782;8.824;2022-10-16T13:36:30;17.60;99.90
13854;DHT22;6997;51.782;8.824;2022-10-16T13:39:25;17.70;99.90
13854;DHT22;6997;51.782;8.824;2022-10-16T13:42:15;17.50;99.90
13854;DHT22;6997;51.782;8.824;2022-10-16T13:44:46;17.50;99.90
13854;DHT22;6997;51.782;8.824;2022-10-16T13:47:25;17.90;99.90
13854;DHT22;6997;51.782;8.824;2022-10-16T13:50:16;17.60;99.90
13854;DHT22;6997;51.782;8.824;2022-10-16T13:52:43;17.70;99.90
13854;DHT22;6997;51.782;8.824;2022-10-16T13:55:16;17.70;99.90
13854;DHT22;6997;51.782;8.824;2022-10-16T13:57:44;17.80;99.90
13854;DHT22;6997;51.782;8.824;2022-10-16T14:03:34;17.70;99.90
13854;DHT22;6997;51.782;8.824;2022-10-16T14:06:03;17.70;99.90
13854;DHT22;6997;51.782;8.824;2022-10-16T14:08:32;17.80;99.90
13854;DHT22;6997;51.782;8.824;2022-10-16T14:11:00;17.80;99.90
13854;DHT22;6997;51.782;8.824;2022-10-16T14:13:33;17.80;99.90
13854;DHT22;6997;51.782;8.824;2022-10-16T14:16:04;17.70;99.90
13854;DHT22;6997;51.782;8.824;2022-10-16T14:18:32;17.70;99.90
13854;DHT22;6997;51.782;8.824;2022-10-16T14:21:04;17.70;99.90
13854;DHT22;6997;51.782;8.824;2022-10-16T14:23:35;17.60;99.90
13854;DHT22;6997;51.782;8.824;2022-10-16T14:28:36;17.70;99.90
13854;DHT22;6997;51.782;8.824;2022-10-16T14:33:48;17.70;99.90
13854;DHT22;6997;51.782;8.824;2022-10-16T14:36:15;17.70;99.90
13854;DHT22;6997;51.782;8.824;2022-10-16T14:41:23;17.60;99.90
13854;DHT22;6997;51.782;8.824;2022-10-16T14:43:54;17.60;99.90
13854;DHT22;6997;51.782;8.824;2022-10-16T14:46:32;17.60;99.90
13854;DHT22;6997;51.782;8.824;2022-10-16T14:49:20;17.50;99.90
13854;DHT22;6997;51.782;8.824;2022-10-16T14:51:48;17.40;99.90
13854;DHT22;6997;51.782;8.824;2022-10-16T14:54:15;17.30;99.90
13854;DHT22;6997;51.782;8.824;2022-10-16T14:56:58;17.20;99.90
13854;DHT22;6997;51.782;8.824;2022-10-16T14:59:40;17.30;99.90
13854;DHT22;6997;51.782;8.824;2022-10-16T15:02:22;17.30;99.90
13854;DHT22;6997;51.782;8.824;2022-10-16T15:04:50;17.30;99.90
13854;DHT22;6997;51.782;8.824;2022-10-16T15:07:17;17.30;99.90
13854;DHT22;6997;51.782;8.824;2022-10-16T15:09:42;17.90;99.90
13854;DHT22;6997;51.782;8.824;2022-10-16T15:12:11;17.40;99.90
13854;DHT22;6997;51.782;8.824;2022-10-16T15:14:38;17.20;99.90
13854;DHT22;6997;51.782;8.824;2022-10-16T15:35:15;17.10;99.90
13854;DHT22;6997;51.782;8.824;2022-10-16T15:37:43;16.90;99.90
13854;DHT22;6997;51.782;8.824;2022-10-16T15:40:12;16.90;99.90
13854;DHT22;6997;51.782;8.824;2022-10-16T15:42:39;16.80;99.90
13854;DHT22;6997;51.782;8.824;2022-10-16T15:45:06;16.70;99.90
13854;DHT22;6997;51.782;8.824;2022-10-16T15:54:24;16.50;99.90
13854;DHT22;6997;51.782;8.824;2022-10-16T15:56:51;16.40;99.90
13854;DHT22;6997;51.782;8.824;2022-10-16T15:59:17;16.30;99.90
13854;DHT22;6997;51.782;8.824;2022-10-16T16:01:44;16.20;99.90
13854;DHT22;6997;51.782;8.824;2022-10-16T16:04:11;16.20;99.90
13854;DHT22;6997;51.782;8.824;2022-10-16T16:06:39;16.10;99.90
13854;DHT22;6997;51.782;8.824;2022-10-16T16:12:18;16.00;99.90
13854;DHT22;6997;51.782;8.824;2022-10-16T16:14:44;15.90;99.90
13854;DHT22;6997;51.782;8.824;2022-10-16T16:17:12;15.90;99.90
13854;DHT22;6997;51.782;8.824;2022-10-16T16:19:38;15.90;99.90
13854;DHT22;6997;51.782;8.824;2022-10-16T16:22:04;15.80;99.90
13854;DHT22;6997;51.782;8.824;2022-10-16T16:35:02;15.40;99.90
13854;DHT22;6997;51.782;8.824;2022-10-16T16:37:29;15.30;99.90
13854;DHT22;6997;51.782;8.824;2022-10-16T16:39:56;15.10;99.90
13854;DHT22;6997;51.782;8.824;2022-10-16T16:42:25;15.10;99.90
13854;DHT22;6997;51.782;8.824;2022-10-16T16:44:52;15.00;99.90
13854;DHT22;6997;51.782;8.824;2022-10-16T16:47:19;15.00;99.90
13854;DHT22;6997;51.782;8.824;2022-10-16T16:49:47;15.00;99.90
13854;DHT22;6997;51.782;8.824;2022-10-16T16:52:14;15.00;99.90
13854;DHT22;6997;51.782;8.824;2022-10-16T16:54:41;15.00;99.90
13854;DHT22;6997;51.782;8.824;2022-10-16T16:57:09;15.00;99.90
13854;DHT22;6997;51.782;8.824;2022-10-16T16:59:36;14.90;99.90
13854;DHT22;6997;51.782;8.824;2022-10-16T17:02:02;15.00;99.90
13854;DHT22;6997;51.782;8.824;2022-10-16T17:04:29;14.90;99.90
13854;DHT22;6997;51.782;8.824;2022-10-16T17:06:56;14.80;99.90
13854;DHT22;6997;51.782;8.824;2022-10-16T17:09:22;14.70;99.90
13854;DHT22;6997;51.782;8.824;2022-10-16T17:11:49;14.70;99.90
13854;DHT22;6997;51.782;8.824;2022-10-16T17:14:15;14.70;99.90
13854;DHT22;6997;51.782;8.824;2022-10-16T17:16:41;14.70;99.90
13854;DHT22;6997;51.782;8.824;2022-10-16T17:19:13;14.60;99.90
13854;DHT22;6997;51.782;8.824;2022-10-16T17:21:40;14.60;99.90
13854;DHT22;6997;51.782;8.824;2022-10-16T17:24:07;14.60;99.90
13854;DHT22;6997;51.782;8.824;2022-10-16T17:26:34;14.70;99.90
13854;DHT22;6997;51.782;8.824;2022-10-16T17:29:03;14.70;99.90
13854;DHT22;6997;51.782;8.824;2022-10-16T17:31:32;14.90;99.90
13854;DHT22;6997;51.782;8.824;2022-10-16T17:34:00;14.70;99.90
13854;DHT22;6997;51.782;8.824;2022-10-16T17:36:27;14.80;99.90
13854;DHT22;6997;51.782;8.824;2022-10-16T17:38:58;14.60;99.90
13854;DHT22;6997;51.782;8.824;2022-10-16T17:41:25;14.60;99.90
13854;DHT22;6997;51.782;8.824;2022-10-16T17:43:51;14.60;99.90
13854;DHT22;6997;51.782;8.824;2022-10-16T17:46:18;15.10;99.90
13854;DHT22;6997;51.782;8.824;2022-10-16T17:48:47;14.50;99.90
13854;DHT22;6997;51.782;8.824;2022-10-16T17:51:15;14.50;99.90
13854;DHT22;6997;51.782;8.824;2022-10-16T17:53:41;14.50;99.90
13854;DHT22;6997;51.782;8.824;2022-10-16T17:56:12;14.50;99.90
13854;DHT22;6997;51.782;8.824;2022-10-16T17:58:39;14.40;99.90
13854;DHT22;6997;51.782;8.824;2022-10-16T18:01:23;14.40;99.90
13854;DHT22;6997;51.782;8.824;2022-10-16T18:04:11;14.40;99.90
13854;DHT22;6997;51.782;8.824;2022-10-16T18:06:37;14.40;99.90
13854;DHT22;6997;51.782;8.824;2022-10-16T18:09:04;14.40;99.90
13854;DHT22;6997;51.782;8.824;2022-10-16T18:11:30;14.40;99.90
13854;DHT22;6997;51.782;8.824;2022-10-16T18:13:57;14.40;99.90
13854;DHT22;6997;51.782;8.824;2022-10-16T18:16:25;14.40;99.90
13854;DHT22;6997;51.782;8.824;2022-10-16T18:18:54;14.40;99.90
13854;DHT22;6997;51.782;8.824;2022-10-16T18:21:22;14.50;99.90
13854;DHT22;6997;51.782;8.824;2022-10-16T18:23:48;14.40;99.90
13854;DHT22;6997;51.782;8.824;2022-10-16T18:26:14;14.50;99.90